createdAt,value
2022-11-24T00:04:49.196Z,2.86
2022-11-24T00:09:51.787Z,2.93
2022-11-24T00:14:54.344Z,2.97
2022-11-24T00:19:56.940Z,2.89
2022-11-24T00:24:59.484Z,2.71
2022-11-24T00:30:02.054Z,2.68
2022-11-24T00:35:07.938Z,2.71
2022-11-24T00:40:10.794Z,2.58
2022-11-24T00:45:14.710Z,2.71
2022-11-24T00:50:17.649Z,2.75
2022-11-24T00:55:20.278Z,2.78
2022-11-24T01:00:23.020Z,2.76
2022-11-24T01:05:25.600Z,2.86
2022-11-24T01:10:28.212Z,2.79
2022-11-24T01:15:30.918Z,2.86
2022-11-24T01:20:33.601Z,2.76
2022-11-24T01:25:40.346Z,2.99
2022-11-24T01:30:43.011Z,2.98
2022-11-24T01:35:45.688Z,3.08
2022-11-24T01:40:48.462Z,2.85
2022-11-24T01:45:51.306Z,3.04
2022-11-24T01:51:00.015Z,3.00
2022-11-24T01:56:03.607Z,2.88
2022-11-24T02:01:06.496Z,3.00
2022-11-24T02:06:14.725Z,3.03
2022-11-24T02:11:17.404Z,3.30
2022-11-24T02:16:20.207Z,3.11
2022-11-24T02:21:25.317Z,2.96
2022-11-24T02:26:33.659Z,3.03
2022-11-24T02:31:36.421Z,3.07
2022-11-24T02:36:38.970Z,2.92
2022-11-24T02:41:50.724Z,2.96
2022-11-24T02:47:11.141Z,2.83
2022-11-24T02:52:13.841Z,2.88
2022-11-24T02:57:16.337Z,2.79
2022-11-24T03:02:18.925Z,2.68
2022-11-24T03:07:21.475Z,2.66
2022-11-24T03:12:24.042Z,2.71
2022-11-24T03:17:26.692Z,2.74
2022-11-24T03:22:29.320Z,2.79
2022-11-24T03:27:32.211Z,2.89
2022-11-24T03:32:34.753Z,2.87
2022-11-24T03:37:37.588Z,2.74
2022-11-24T03:42:41.075Z,2.78
2022-11-24T03:47:43.611Z,2.87
2022-11-24T03:52:51.477Z,2.71
2022-11-24T03:57:53.959Z,2.81
2022-11-24T04:02:56.488Z,2.82
2022-11-24T04:08:03.173Z,2.76
2022-11-24T04:13:12.807Z,2.76
2022-11-24T04:18:15.480Z,2.88
2022-11-24T04:23:20.723Z,3.09
2022-11-24T04:28:23.205Z,3.10
2022-11-24T04:33:25.758Z,3.17
2022-11-24T04:39:24.689Z,3.33
2022-11-24T04:43:51.360Z,3.20
2022-11-24T04:48:53.823Z,3.17
2022-11-24T04:53:56.284Z,3.24
2022-11-24T04:59:00.053Z,3.12
2022-11-24T05:04:04.207Z,3.05
2022-11-24T05:09:08.372Z,3.25
2022-11-24T05:14:10.878Z,3.00
2022-11-24T05:19:13.846Z,3.17
2022-11-24T05:24:16.293Z,3.29
2022-11-24T05:29:18.779Z,3.29
2022-11-24T05:34:21.695Z,3.19
2022-11-24T05:39:24.262Z,3.14
2022-11-24T05:44:26.755Z,3.07
2022-11-24T05:49:29.198Z,3.17
2022-11-24T05:54:31.915Z,3.26
2022-11-24T05:59:35.862Z,3.04
2022-11-24T06:04:38.375Z,3.18
2022-11-24T06:09:42.351Z,2.97
2022-11-24T06:14:45.444Z,2.96
2022-11-24T06:19:50.453Z,2.97
2022-11-24T06:24:52.956Z,2.98
2022-11-24T06:29:55.501Z,3.01
2022-11-24T06:34:58.152Z,3.02
2022-11-24T06:40:09.145Z,2.92
2022-11-24T06:45:11.774Z,3.10
2022-11-24T06:50:14.273Z,3.27
2022-11-24T06:55:16.766Z,3.09
2022-11-24T07:00:19.571Z,3.00
2022-11-24T07:05:22.065Z,3.12
2022-11-24T07:10:24.784Z,3.23
2022-11-24T07:15:29.273Z,3.12
2022-11-24T07:20:31.888Z,3.12
2022-11-24T07:25:34.315Z,3.23
2022-11-24T07:30:36.818Z,3.42
2022-11-24T07:35:39.323Z,3.42
2022-11-24T07:40:41.902Z,3.14
2022-11-24T07:45:44.559Z,3.10
2022-11-24T07:50:49.959Z,3.39
2022-11-24T07:56:00.664Z,3.31
2022-11-24T08:01:29.447Z,3.44
2022-11-24T08:06:39.868Z,3.37
2022-11-24T08:11:45.856Z,3.57
2022-11-24T08:16:48.424Z,3.71
2022-11-24T08:21:51.018Z,3.47
2022-11-24T08:26:53.586Z,3.44
2022-11-24T08:31:59.655Z,3.51
2022-11-24T08:37:04.849Z,3.53
2022-11-24T08:42:07.344Z,3.58
2022-11-24T08:47:09.864Z,3.68
2022-11-24T08:52:12.455Z,3.99
2022-11-24T08:57:20.302Z,3.65
2022-11-24T09:02:24.451Z,3.73
2022-11-24T09:07:27.366Z,3.87
2022-11-24T09:12:29.870Z,3.88
2022-11-24T09:17:33.194Z,3.80
2022-11-24T09:22:42.073Z,3.98
2022-11-24T09:27:44.723Z,3.95
2022-11-24T09:32:47.299Z,4.05
2022-11-24T09:37:49.825Z,3.78
2022-11-24T09:43:06.988Z,3.97
2022-11-24T09:48:23.068Z,3.98
2022-11-24T09:53:49.148Z,3.97
2022-11-24T09:59:17.529Z,3.77
2022-11-24T10:04:34.606Z,3.84
2022-11-24T10:10:06.866Z,3.62
2022-11-24T10:15:22.922Z,4.06
2022-11-24T10:20:34.114Z,4.13
2022-11-24T10:25:57.915Z,4.05
2022-11-24T10:31:20.726Z,3.83
2022-11-24T10:36:43.845Z,3.36
2022-11-24T10:41:52.139Z,3.67
2022-11-24T10:46:54.902Z,4.21
2022-11-24T10:52:14.362Z,3.95
2022-11-24T10:57:32.516Z,4.20
2022-11-24T11:02:40.060Z,4.08
2022-11-24T11:07:42.720Z,3.82
2022-11-24T11:12:45.887Z,4.11
2022-11-24T11:17:50.824Z,3.96
2022-11-24T11:22:56.351Z,3.63
2022-11-24T11:28:26.050Z,4.04
2022-11-24T11:38:54.445Z,4.52
2022-11-24T11:44:15.262Z,4.27
2022-11-24T11:49:17.838Z,3.89
2022-11-24T11:54:28.966Z,4.30
2022-11-24T11:59:49.631Z,4.01
2022-11-24T12:05:06.711Z,4.09
2022-11-24T12:10:39.977Z,4.28
2022-11-24T12:15:48.787Z,4.24
2022-11-24T12:21:26.218Z,4.28
2022-11-24T12:26:38.619Z,4.08
2022-11-24T12:32:00.091Z,4.01
2022-11-24T12:37:26.881Z,4.07
2022-11-24T12:42:55.479Z,4.00
2022-11-24T12:48:29.211Z,4.26
2022-11-24T12:53:34.503Z,4.44
2022-11-24T12:59:06.085Z,4.23
2022-11-24T13:04:35.387Z,4.14
2022-11-24T13:09:38.600Z,4.33
2022-11-24T13:14:50.455Z,4.18
2022-11-24T13:19:52.993Z,4.15
2022-11-24T13:25:29.192Z,3.98
2022-11-24T13:30:34.636Z,4.15
2022-11-24T13:35:37.994Z,4.18
2022-11-24T13:40:54.308Z,4.39
2022-11-24T13:46:05.057Z,4.45
2022-11-24T13:51:16.953Z,4.24
2022-11-24T13:56:19.475Z,4.55
2022-11-24T14:01:32.725Z,4.25
2022-11-24T14:06:52.708Z,4.51
2022-11-24T14:12:12.549Z,4.45
2022-11-24T14:17:28.703Z,4.28
2022-11-24T14:22:41.574Z,4.20
2022-11-24T14:27:44.126Z,4.42
2022-11-24T14:32:57.822Z,4.48
2022-11-24T14:38:06.151Z,4.47
2022-11-24T14:43:22.882Z,4.58
2022-11-24T14:48:28.448Z,4.59
2022-11-24T14:53:30.988Z,4.38
2022-11-24T14:58:40.516Z,4.38
2022-11-24T15:03:44.755Z,4.37
2022-11-24T15:08:49.707Z,4.26
2022-11-24T15:13:55.125Z,4.38
2022-11-24T15:19:03.987Z,4.35
2022-11-24T15:24:19.880Z,4.53
2022-11-24T15:29:22.653Z,4.36
2022-11-24T15:34:54.230Z,4.18
2022-11-24T15:39:56.738Z,4.34
2022-11-24T15:44:59.260Z,4.38
2022-11-24T15:50:01.824Z,4.19
2022-11-24T15:55:06.143Z,4.19
2022-11-24T16:00:15.092Z,4.16
2022-11-24T16:05:18.630Z,4.13
2022-11-24T16:10:31.797Z,4.28
2022-11-24T16:15:34.395Z,4.18
2022-11-24T16:20:37.052Z,4.32
2022-11-24T16:25:39.607Z,4.16
2022-11-24T16:30:42.137Z,4.26
2022-11-24T16:35:48.410Z,4.02
2022-11-24T16:40:56.565Z,4.27
2022-11-24T16:46:23.965Z,4.09
2022-11-24T16:51:31.369Z,3.95
2022-11-24T16:56:36.995Z,3.99
2022-11-24T17:01:40.995Z,4.01
2022-11-24T17:06:43.823Z,4.02
2022-11-24T17:11:46.436Z,4.06
2022-11-24T17:17:05.622Z,3.95
2022-11-24T17:22:08.129Z,4.08
2022-11-24T17:27:10.851Z,4.05
2022-11-24T17:32:13.419Z,4.07
2022-11-24T17:37:16.185Z,3.86
2022-11-24T17:42:18.615Z,4.05
2022-11-24T17:47:21.145Z,4.01
2022-11-24T17:52:24.925Z,4.22
2022-11-24T17:57:27.362Z,4.10
2022-11-24T18:02:29.953Z,4.11
2022-11-24T18:07:32.798Z,4.03
2022-11-24T18:12:35.311Z,4.09
2022-11-24T18:17:37.900Z,4.03
2022-11-24T18:23:04.500Z,4.05
2022-11-24T18:28:02.885Z,4.06
2022-11-24T18:33:05.386Z,4.19
2022-11-24T18:38:08.934Z,4.10
2022-11-24T18:43:11.440Z,4.05
2022-11-24T18:48:15.176Z,3.96
2022-11-24T18:53:18.108Z,3.98
2022-11-24T18:58:20.558Z,4.11
2022-11-24T19:03:23.478Z,3.97
2022-11-24T19:08:25.912Z,3.81
2022-11-24T19:13:28.541Z,3.68
2022-11-24T19:18:31.045Z,3.77
2022-11-24T19:23:33.582Z,3.78
2022-11-24T19:28:36.256Z,3.65
2022-11-24T19:33:42.437Z,3.65
2022-11-24T19:38:50.825Z,3.73
2022-11-24T19:43:55.020Z,3.80
2022-11-24T19:49:00.630Z,3.72
2022-11-24T19:54:04.480Z,3.63
2022-11-24T19:59:07.504Z,3.65
2022-11-24T20:04:13.013Z,3.63
2022-11-24T20:09:18.218Z,3.51
2022-11-24T20:14:20.733Z,3.54
2022-11-24T20:19:23.331Z,3.62
2022-11-24T20:24:25.856Z,3.43
2022-11-24T20:29:29.520Z,3.26
2022-11-24T20:34:32.084Z,3.31
2022-11-24T20:39:34.730Z,3.37
2022-11-24T20:44:37.905Z,3.49
2022-11-24T20:49:40.534Z,3.45
2022-11-24T20:54:46.982Z,3.48
2022-11-24T20:59:50.279Z,3.63
2022-11-24T21:04:52.800Z,3.54
2022-11-24T21:09:55.268Z,3.54
2022-11-24T21:14:57.715Z,3.44
2022-11-24T21:20:01.298Z,3.39
2022-11-24T21:25:05.843Z,3.46
2022-11-24T21:30:09.599Z,3.58
2022-11-24T21:35:12.176Z,3.50
2022-11-24T21:40:15.364Z,3.59
2022-11-24T21:45:18.032Z,3.46
2022-11-24T21:50:20.519Z,3.54
2022-11-24T21:55:23.101Z,3.53
2022-11-24T22:00:25.577Z,3.63
2022-11-24T22:05:28.145Z,3.42
2022-11-24T22:10:30.633Z,3.44
2022-11-24T22:15:33.080Z,3.31
2022-11-24T22:20:36.108Z,3.38
2022-11-24T22:25:38.564Z,3.48
2022-11-24T22:30:41.034Z,3.30
2022-11-24T22:35:43.563Z,3.32
2022-11-24T22:40:46.408Z,3.24
2022-11-24T22:45:49.102Z,3.30
2022-11-24T22:50:51.553Z,3.30
2022-11-24T22:56:12.409Z,3.39
2022-11-24T23:01:23.918Z,3.36
2022-11-24T23:06:31.124Z,3.41
2022-11-24T23:11:41.106Z,3.38
2022-11-24T23:16:44.053Z,3.36
2022-11-24T23:21:46.656Z,3.46
2022-11-24T23:26:49.205Z,3.27
2022-11-24T23:31:52.082Z,3.30
2022-11-24T23:36:54.591Z,3.40
2022-11-24T23:41:57.029Z,3.39
2022-11-24T23:46:59.767Z,3.29
2022-11-24T23:52:02.256Z,3.30
2022-11-24T23:57:04.699Z,3.40
